createdAt,value
2023-03-29T00:02:12.670Z,99.90
2023-03-29T00:04:41.429Z,99.90
2023-03-29T00:07:08.805Z,99.90
2023-03-29T00:09:36.002Z,99.90
2023-03-29T00:12:03.331Z,99.90
2023-03-29T00:14:31.093Z,99.90
2023-03-29T00:16:59.024Z,99.90
2023-03-29T00:19:26.750Z,99.90
2023-03-29T00:21:53.697Z,99.90
2023-03-29T00:24:21.463Z,99.90
2023-03-29T00:26:48.854Z,99.90
2023-03-29T00:29:16.168Z,99.90
2023-03-29T00:31:46.168Z,99.90
2023-03-29T00:34:14.204Z,99.90
2023-03-29T00:36:41.505Z,99.90
2023-03-29T00:39:09.697Z,99.90
2023-03-29T00:41:36.652Z,99.90
2023-03-29T00:44:04.936Z,99.90
2023-03-29T00:46:34.833Z,99.90
2023-03-29T00:49:13.985Z,99.90
2023-03-29T00:51:42.585Z,99.90
2023-03-29T00:54:14.868Z,99.90
2023-03-29T00:56:44.179Z,99.90
2023-03-29T00:59:16.188Z,99.90
2023-03-29T01:01:48.193Z,99.90
2023-03-29T01:04:23.978Z,99.90
2023-03-29T01:06:59.503Z,99.90
2023-03-29T01:09:30.378Z,99.90
2023-03-29T01:12:02.577Z,99.90
2023-03-29T01:14:38.351Z,99.90
2023-03-29T01:17:06.676Z,99.90
2023-03-29T01:19:40.603Z,99.90
2023-03-29T01:22:26.022Z,99.90
2023-03-29T01:24:57.204Z,99.90
2023-03-29T01:27:47.252Z,99.90
2023-03-29T01:30:19.778Z,99.90
2023-03-29T01:32:53.503Z,99.90
2023-03-29T01:35:28.184Z,99.90
2023-03-29T01:38:04.228Z,99.90
2023-03-29T01:40:33.690Z,99.90
2023-03-29T01:43:03.904Z,99.90
2023-03-29T01:45:40.101Z,99.90
2023-03-29T01:48:23.409Z,99.90
2023-03-29T01:50:56.453Z,99.90
2023-03-29T01:53:33.749Z,99.90
2023-03-29T01:56:09.950Z,99.90
2023-03-29T01:58:43.086Z,99.90
2023-03-29T02:01:11.799Z,99.90
2023-03-29T02:03:43.874Z,99.90
2023-03-29T02:06:12.949Z,99.90
2023-03-29T02:08:41.463Z,99.90
2023-03-29T02:11:09.737Z,99.90
2023-03-29T02:13:37.332Z,99.90
2023-03-29T02:16:09.814Z,99.90
2023-03-29T02:18:36.882Z,99.90
2023-03-29T02:21:04.112Z,99.90
2023-03-29T02:23:36.295Z,99.90
2023-03-29T02:26:06.728Z,99.90
2023-03-29T02:28:33.679Z,99.90
2023-03-29T02:31:31.098Z,99.90
2023-03-29T02:34:20.801Z,99.90
2023-03-29T02:36:53.484Z,99.90
2023-03-29T02:39:22.903Z,99.90
2023-03-29T02:41:51.256Z,99.90
2023-03-29T02:44:22.657Z,99.90
2023-03-29T02:46:51.418Z,99.90
2023-03-29T02:49:18.482Z,99.90
2023-03-29T02:51:52.695Z,99.90
2023-03-29T02:54:23.095Z,99.90
2023-03-29T02:56:57.118Z,99.90
2023-03-29T02:59:24.294Z,99.90
2023-03-29T04:02:26.667Z,99.90
2023-03-29T04:04:54.783Z,99.90
2023-03-29T04:07:21.596Z,99.90
2023-03-29T04:09:48.870Z,99.90
2023-03-29T04:12:15.723Z,99.90
2023-03-29T04:14:42.665Z,99.90
2023-03-29T04:17:09.698Z,99.90
2023-03-29T04:19:36.510Z,99.90
2023-03-29T04:22:03.999Z,99.90
2023-03-29T04:24:31.502Z,99.90
2023-03-29T04:26:58.455Z,99.90
2023-03-29T04:29:26.044Z,99.90
2023-03-29T04:31:52.975Z,99.90
2023-03-29T04:34:19.772Z,99.90
2023-03-29T04:36:50.256Z,99.90
2023-03-29T04:39:18.351Z,99.90
2023-03-29T04:41:46.009Z,99.90
2023-03-29T04:44:14.204Z,99.90
2023-03-29T04:46:40.962Z,99.90
2023-03-29T04:49:07.721Z,99.90
2023-03-29T04:51:34.497Z,99.90
2023-03-29T04:54:01.264Z,99.90
2023-03-29T04:56:28.098Z,99.90
2023-03-29T04:58:55.293Z,99.90
2023-03-29T05:01:22.167Z,99.90
2023-03-29T05:03:48.945Z,99.90
2023-03-29T05:06:15.698Z,99.90
2023-03-29T05:08:42.594Z,99.90
2023-03-29T05:11:11.598Z,99.90
2023-03-29T05:13:38.486Z,99.90
2023-03-29T05:16:06.831Z,99.90
2023-03-29T05:18:33.607Z,99.90
2023-03-29T05:21:01.069Z,99.90
2023-03-29T05:23:28.867Z,99.90
2023-03-29T05:25:55.792Z,99.90
2023-03-29T05:28:22.641Z,99.90
2023-03-29T05:31:01.264Z,99.90
2023-03-29T05:33:28.697Z,99.90
2023-03-29T05:36:00.545Z,99.90
2023-03-29T05:38:27.558Z,99.90
2023-03-29T05:40:54.350Z,99.90
2023-03-29T05:43:21.188Z,99.90
2023-03-29T05:45:48.616Z,99.90
2023-03-29T05:48:15.711Z,99.90
2023-03-29T05:50:47.217Z,99.90
2023-03-29T05:53:14.348Z,99.90
2023-03-29T05:55:42.434Z,99.90
2023-03-29T05:58:10.349Z,99.90
2023-03-29T06:00:38.590Z,99.90
2023-03-29T06:03:14.126Z,99.90
2023-03-29T06:05:49.686Z,99.90
2023-03-29T06:08:16.870Z,99.90
2023-03-29T06:10:43.947Z,99.90
2023-03-29T06:13:10.943Z,99.90
2023-03-29T06:15:37.771Z,99.90
2023-03-29T06:18:04.714Z,99.90
2023-03-29T06:20:31.999Z,99.90
2023-03-29T06:22:59.055Z,99.90
2023-03-29T06:25:25.771Z,99.90
2023-03-29T06:27:52.675Z,99.90
2023-03-29T06:30:19.705Z,99.90
2023-03-29T06:32:46.575Z,99.90
2023-03-29T06:35:13.512Z,99.90
2023-03-29T06:37:41.565Z,99.90
2023-03-29T06:40:10.112Z,99.90
2023-03-29T06:42:36.972Z,99.90
2023-03-29T06:45:04.390Z,99.90
2023-03-29T06:47:31.677Z,99.90
2023-03-29T06:49:58.535Z,99.90
2023-03-29T06:52:25.309Z,99.90
2023-03-29T06:54:52.101Z,99.90
2023-03-29T06:57:19.194Z,99.90
2023-03-29T06:59:47.428Z,99.90
2023-03-29T07:02:14.387Z,99.90
2023-03-29T07:04:42.586Z,99.90
2023-03-29T07:07:19.756Z,99.90
2023-03-29T07:09:54.544Z,99.90
2023-03-29T07:12:23.041Z,99.90
2023-03-29T07:14:50.060Z,99.90
2023-03-29T07:17:16.843Z,99.90
2023-03-29T07:19:43.902Z,99.90
2023-03-29T07:22:11.299Z,99.90
2023-03-29T07:24:38.175Z,99.90
2023-03-29T07:27:05.095Z,99.90
2023-03-29T07:29:32.613Z,99.90
2023-03-29T07:32:00.219Z,99.90
2023-03-29T07:34:27.259Z,99.90
2023-03-29T07:36:54.593Z,99.90
2023-03-29T07:39:22.381Z,99.90
2023-03-29T07:41:49.155Z,99.90
2023-03-29T07:44:18.393Z,99.90
2023-03-29T07:46:45.196Z,99.90
2023-03-29T07:49:12.072Z,99.90
2023-03-29T07:51:38.903Z,99.90
2023-03-29T07:54:06.471Z,99.90
2023-03-29T07:56:33.369Z,99.90
2023-03-29T07:59:00.143Z,99.90
2023-03-29T08:01:26.953Z,99.90
2023-03-29T08:03:53.817Z,99.90
2023-03-29T08:06:21.106Z,99.90
2023-03-29T08:08:47.925Z,99.90
2023-03-29T08:11:15.283Z,99.90
2023-03-29T08:13:42.478Z,99.90
2023-03-29T08:16:09.420Z,99.90
2023-03-29T08:18:36.230Z,99.90
2023-03-29T08:21:03.260Z,99.90
2023-03-29T08:23:30.509Z,99.90
2023-03-29T08:25:57.224Z,99.90
2023-03-29T08:28:24.339Z,99.90
2023-03-29T08:30:51.205Z,99.90
2023-03-29T08:33:18.473Z,99.90
2023-03-29T08:35:45.498Z,99.90
2023-03-29T08:38:12.714Z,99.90
2023-03-29T08:40:39.806Z,99.90
2023-03-29T08:43:37.467Z,99.90
2023-03-29T08:46:34.593Z,99.90
2023-03-29T08:49:06.992Z,99.90
2023-03-29T08:51:42.835Z,99.90
2023-03-29T08:54:27.221Z,99.90
2023-03-29T08:57:03.148Z,99.90
2023-03-29T08:59:33.101Z,99.90
2023-03-29T09:02:02.563Z,99.90
2023-03-29T09:04:33.231Z,99.90
2023-03-29T09:07:02.272Z,99.90
2023-03-29T09:09:33.884Z,99.90
2023-03-29T09:12:07.399Z,99.90
2023-03-29T09:14:59.040Z,99.90
2023-03-29T09:17:29.217Z,99.90
2023-03-29T09:20:11.289Z,99.90
2023-03-29T09:22:41.406Z,99.90
2023-03-29T09:25:28.592Z,99.90
2023-03-29T09:28:04.456Z,99.90
2023-03-29T09:30:58.653Z,99.90
2023-03-29T09:33:30.638Z,99.90
2023-03-29T09:36:10.333Z,99.90
2023-03-29T09:38:42.771Z,99.90
2023-03-29T09:41:41.316Z,99.90
2023-03-29T09:44:24.224Z,99.90
2023-03-29T09:47:02.153Z,99.90
2023-03-29T09:49:36.364Z,99.90
2023-03-29T09:52:11.590Z,99.90
2023-03-29T09:54:38.679Z,99.90
2023-03-29T09:57:05.971Z,99.90
2023-03-29T09:59:33.177Z,99.90
2023-03-29T10:02:09.518Z,99.90
2023-03-29T10:04:37.243Z,99.90
2023-03-29T10:07:07.053Z,99.90
2023-03-29T10:09:35.425Z,99.90
2023-03-29T10:12:07.063Z,99.90
2023-03-29T10:14:37.241Z,99.90
2023-03-29T10:17:13.975Z,99.90
2023-03-29T10:19:49.507Z,99.90
2023-03-29T10:22:22.128Z,99.90
2023-03-29T10:24:52.336Z,99.90
2023-03-29T10:27:23.580Z,99.90
2023-03-29T10:29:52.014Z,99.90
2023-03-29T10:32:25.888Z,99.90
2023-03-29T10:34:54.060Z,99.90
2023-03-29T10:37:23.804Z,99.90
2023-03-29T10:39:52.153Z,99.90
2023-03-29T10:42:24.128Z,99.90
2023-03-29T10:44:57.867Z,99.90
2023-03-29T10:47:25.350Z,99.90
2023-03-29T10:49:57.094Z,99.90
2023-03-29T10:52:25.142Z,99.90
2023-03-29T10:54:54.977Z,99.90
2023-03-29T10:57:33.826Z,99.90
2023-03-29T11:00:08.940Z,99.90
2023-03-29T11:02:41.012Z,99.90
2023-03-29T11:05:28.084Z,99.90
2023-03-29T11:07:56.282Z,99.90
2023-03-29T11:10:58.249Z,99.90
2023-03-29T11:13:32.168Z,99.90
2023-03-29T11:16:01.739Z,99.90
2023-03-29T11:18:59.521Z,99.90
2023-03-29T11:21:47.099Z,95.90
2023-03-29T11:24:29.317Z,99.90
2023-03-29T11:27:31.638Z,99.90
2023-03-29T11:30:13.754Z,99.90
2023-03-29T11:32:47.611Z,99.90
2023-03-29T11:43:12.200Z,99.90
2023-03-29T11:45:45.086Z,99.90
2023-03-29T11:48:26.596Z,99.90
2023-03-29T11:51:04.169Z,99.90
2023-03-29T11:53:42.276Z,99.90
2023-03-29T11:56:15.952Z,99.90
2023-03-29T11:58:48.539Z,99.90
2023-03-29T12:01:34.694Z,98.60
2023-03-29T12:04:11.142Z,97.10
2023-03-29T12:06:50.515Z,95.00
2023-03-29T12:09:35.171Z,97.70
2023-03-29T12:12:21.642Z,94.40
2023-03-29T12:14:54.766Z,96.50
2023-03-29T12:17:30.968Z,98.40
2023-03-29T12:20:28.859Z,97.30
2023-03-29T12:22:56.549Z,97.80
2023-03-29T12:25:31.468Z,98.90
2023-03-29T12:28:21.543Z,97.30
2023-03-29T12:31:15.530Z,98.20
2023-03-29T12:33:50.785Z,97.30
2023-03-29T12:36:41.686Z,97.90
2023-03-29T12:39:15.698Z,98.20
2023-03-29T12:41:45.882Z,98.70
2023-03-29T12:44:16.526Z,98.70
2023-03-29T12:46:44.496Z,98.10
2023-03-29T12:49:27.520Z,98.20
2023-03-29T12:51:57.557Z,98.70
2023-03-29T12:54:31.574Z,99.60
2023-03-29T12:57:02.612Z,99.00
2023-03-29T12:59:46.873Z,98.60
2023-03-29T13:02:15.000Z,99.30
2023-03-29T13:04:43.591Z,98.80
2023-03-29T13:07:26.851Z,99.90
2023-03-29T13:09:57.770Z,99.90
2023-03-29T13:12:27.115Z,99.90
2023-03-29T13:17:36.501Z,99.90
2023-03-29T13:25:19.319Z,99.90
2023-03-29T13:27:57.540Z,99.90
2023-03-29T13:30:36.303Z,99.90
2023-03-29T13:33:19.880Z,99.90
2023-03-29T13:35:54.425Z,99.90
2023-03-29T13:38:26.942Z,99.90
2023-03-29T13:40:53.946Z,99.90
2023-03-29T13:43:49.803Z,99.90
2023-03-29T13:46:23.013Z,99.90
2023-03-29T13:49:11.786Z,99.90
2023-03-29T13:51:42.905Z,99.90
2023-03-29T13:56:58.006Z,99.90
2023-03-29T13:59:33.798Z,99.90
2023-03-29T14:02:03.061Z,99.90
2023-03-29T14:04:38.018Z,99.90
2023-03-29T14:07:07.116Z,99.90
2023-03-29T14:09:40.084Z,99.90
2023-03-29T14:12:09.657Z,99.90
2023-03-29T14:14:42.646Z,99.90
2023-03-29T14:17:22.501Z,99.90
2023-03-29T14:19:50.862Z,99.90
2023-03-29T14:22:20.828Z,99.90
2023-03-29T14:24:53.700Z,99.90
2023-03-29T14:27:24.497Z,99.90
2023-03-29T14:29:52.415Z,99.90
2023-03-29T14:32:27.815Z,99.90
2023-03-29T14:34:54.788Z,99.90
2023-03-29T14:37:28.268Z,99.90
2023-03-29T14:39:56.476Z,99.90
2023-03-29T14:42:27.158Z,99.90
2023-03-29T14:45:04.444Z,99.90
2023-03-29T14:47:33.377Z,99.90
2023-03-29T14:50:01.799Z,99.90
2023-03-29T14:52:30.476Z,99.90
2023-03-29T14:55:00.519Z,99.90
2023-03-29T14:57:33.318Z,99.90
2023-03-29T15:00:02.332Z,99.90
2023-03-29T15:02:32.373Z,99.90
2023-03-29T15:05:05.172Z,99.90
2023-03-29T15:07:35.170Z,99.90
2023-03-29T15:10:05.561Z,99.90
2023-03-29T15:12:33.557Z,99.90
2023-03-29T15:15:01.496Z,99.90
2023-03-29T15:17:50.166Z,99.90
2023-03-29T15:20:25.204Z,99.90
2023-03-29T15:23:09.663Z,99.90
2023-03-29T15:25:39.506Z,99.90
2023-03-29T15:28:06.412Z,99.90
2023-03-29T15:30:38.170Z,99.90
2023-03-29T15:33:26.105Z,99.90
2023-03-29T15:35:53.781Z,99.90
2023-03-29T15:38:25.415Z,99.90
2023-03-29T15:41:02.012Z,99.90
2023-03-29T15:43:29.061Z,99.90
2023-03-29T15:45:55.901Z,99.90
2023-03-29T15:48:28.167Z,99.90
2023-03-29T15:50:55.408Z,99.90
2023-03-29T15:53:23.756Z,99.90
2023-03-29T15:55:53.495Z,99.90
2023-03-29T15:58:25.600Z,99.90
2023-03-29T16:00:59.249Z,99.90
2023-03-29T16:03:27.433Z,99.90
2023-03-29T16:05:56.960Z,99.90
2023-03-29T16:08:25.199Z,99.90
2023-03-29T16:10:52.350Z,99.90
2023-03-29T16:13:19.210Z,99.90
2023-03-29T16:15:46.732Z,99.90
2023-03-29T16:18:13.924Z,99.90
2023-03-29T16:20:41.626Z,99.90
2023-03-29T16:23:09.406Z,99.90
2023-03-29T16:25:38.514Z,99.90
2023-03-29T16:28:06.372Z,99.90
2023-03-29T16:30:34.142Z,99.90
2023-03-29T16:33:06.344Z,99.90
2023-03-29T16:35:36.031Z,99.90
2023-03-29T16:38:03.344Z,99.90
2023-03-29T16:40:30.203Z,99.90
2023-03-29T16:42:57.095Z,99.90
2023-03-29T16:45:23.908Z,99.90
2023-03-29T16:47:51.164Z,99.90
2023-03-29T16:50:19.792Z,99.90
2023-03-29T16:52:48.477Z,99.90
2023-03-29T16:55:19.045Z,99.90
2023-03-29T16:57:47.404Z,99.90
2023-03-29T17:00:16.421Z,99.90
2023-03-29T17:02:44.186Z,99.90
2023-03-29T17:05:13.055Z,99.90
2023-03-29T17:07:40.202Z,99.90
2023-03-29T17:10:08.231Z,99.90
2023-03-29T17:12:35.392Z,99.90
2023-03-29T17:15:02.768Z,99.90
2023-03-29T17:17:29.809Z,99.90
2023-03-29T17:19:57.132Z,99.90
2023-03-29T17:22:25.037Z,99.90
2023-03-29T17:24:52.169Z,99.90
2023-03-29T17:27:19.112Z,99.90
2023-03-29T17:29:45.904Z,99.90
2023-03-29T17:32:12.872Z,99.90
2023-03-29T17:34:39.717Z,99.90
2023-03-29T17:37:06.642Z,99.90
2023-03-29T17:39:37.490Z,99.90
2023-03-29T17:42:05.519Z,99.90
2023-03-29T17:44:33.415Z,99.90
2023-03-29T17:47:01.255Z,99.90
2023-03-29T17:49:28.338Z,99.90
2023-03-29T17:51:55.355Z,99.90
2023-03-29T17:54:22.478Z,99.90
2023-03-29T17:56:50.504Z,99.90
2023-03-29T17:59:17.897Z,99.90
2023-03-29T18:01:44.895Z,99.90
2023-03-29T18:04:12.018Z,99.90
2023-03-29T18:06:38.968Z,99.90
2023-03-29T18:09:06.012Z,99.90
2023-03-29T18:11:33.082Z,99.90
2023-03-29T18:14:01.017Z,99.90
2023-03-29T18:16:28.540Z,99.90
2023-03-29T18:18:55.521Z,99.90
2023-03-29T18:21:23.162Z,99.90
2023-03-29T18:23:56.668Z,99.90
2023-03-29T18:26:24.342Z,99.90
2023-03-29T18:28:51.713Z,99.90
2023-03-29T18:31:21.343Z,99.90
2023-03-29T18:33:48.305Z,99.90
2023-03-29T18:36:15.604Z,99.90
2023-03-29T18:38:43.803Z,99.90
2023-03-29T18:41:13.047Z,99.90
2023-03-29T18:43:40.929Z,99.90
2023-03-29T18:46:08.361Z,99.90
2023-03-29T18:48:39.086Z,99.90
2023-03-29T18:51:07.885Z,99.90
2023-03-29T18:53:36.101Z,99.90
2023-03-29T18:56:04.456Z,99.90
2023-03-29T18:58:31.861Z,99.90
2023-03-29T19:01:04.317Z,99.90
2023-03-29T19:03:34.375Z,99.90
2023-03-29T19:06:02.759Z,99.90
2023-03-29T19:08:30.140Z,99.90
2023-03-29T19:11:05.928Z,99.90
2023-03-29T19:13:33.333Z,99.90
2023-03-29T19:16:00.695Z,99.90
2023-03-29T19:18:27.978Z,99.90
2023-03-29T19:20:55.697Z,99.90
2023-03-29T19:23:25.290Z,99.90
2023-03-29T19:25:54.166Z,99.90
2023-03-29T19:28:21.487Z,99.90
2023-03-29T19:30:48.681Z,99.90
2023-03-29T19:33:15.846Z,99.90
2023-03-29T19:35:43.044Z,99.90
2023-03-29T19:38:10.068Z,99.90
2023-03-29T19:40:37.008Z,99.90
2023-03-29T19:43:04.583Z,99.90
2023-03-29T19:45:31.519Z,99.90
2023-03-29T19:48:02.856Z,99.90
2023-03-29T19:50:31.701Z,99.90
2023-03-29T19:52:58.620Z,99.90
2023-03-29T19:55:26.043Z,99.90
2023-03-29T19:57:53.200Z,99.90
2023-03-29T20:00:24.546Z,99.90
2023-03-29T20:02:53.813Z,99.90
2023-03-29T20:05:21.424Z,99.90
2023-03-29T20:07:48.525Z,99.90
2023-03-29T20:10:15.612Z,99.90
2023-03-29T20:12:44.189Z,99.90
2023-03-29T20:15:18.601Z,99.90
2023-03-29T20:17:54.163Z,99.90
2023-03-29T20:20:24.847Z,99.90
2023-03-29T20:22:56.246Z,99.90
2023-03-29T20:25:23.173Z,99.90
2023-03-29T20:27:51.677Z,99.90
2023-03-29T20:30:19.081Z,99.90
2023-03-29T20:32:46.587Z,99.90
2023-03-29T20:35:13.508Z,99.90
2023-03-29T20:37:40.944Z,99.90
2023-03-29T20:40:08.987Z,99.90
2023-03-29T20:42:36.835Z,99.90
2023-03-29T20:45:05.365Z,99.90
2023-03-29T20:47:32.833Z,99.90
2023-03-29T20:50:04.497Z,99.90
2023-03-29T20:52:31.618Z,99.90
2023-03-29T20:55:02.112Z,99.90
2023-03-29T20:57:30.453Z,99.90
2023-03-29T20:59:57.861Z,99.90
2023-03-29T21:02:24.925Z,99.90
2023-03-29T21:04:53.812Z,99.90
2023-03-29T21:07:21.658Z,99.90
2023-03-29T21:09:49.959Z,99.90
2023-03-29T21:12:17.680Z,99.90
2023-03-29T21:14:47.458Z,99.90
2023-03-29T21:17:14.333Z,99.90
2023-03-29T21:19:42.051Z,99.90
2023-03-29T21:22:09.071Z,99.90
2023-03-29T21:24:36.861Z,99.90
2023-03-29T21:27:06.977Z,99.90
2023-03-29T21:29:33.794Z,99.90
2023-03-29T21:32:01.152Z,99.90
2023-03-29T21:34:28.120Z,99.90
2023-03-29T21:36:55.401Z,99.90
2023-03-29T21:39:25.168Z,99.90
2023-03-29T21:41:52.236Z,99.90
2023-03-29T21:44:19.182Z,99.90
2023-03-29T21:46:46.249Z,99.90
2023-03-29T21:49:13.179Z,99.90
2023-03-29T21:51:40.045Z,99.90
2023-03-29T21:54:06.928Z,99.90
2023-03-29T21:56:34.013Z,99.90
2023-03-29T21:59:00.987Z,99.90
2023-03-29T22:01:27.857Z,99.90
2023-03-29T22:03:54.632Z,99.90
2023-03-29T22:06:21.797Z,99.90
2023-03-29T22:08:53.107Z,99.90
2023-03-29T22:11:20.364Z,99.90
2023-03-29T22:13:47.508Z,99.90
2023-03-29T22:16:16.873Z,99.90
2023-03-29T22:18:49.475Z,99.90
2023-03-29T22:21:20.094Z,99.90
2023-03-29T22:23:50.849Z,99.90
2023-03-29T22:26:20.115Z,99.90
2023-03-29T22:28:47.343Z,99.90
2023-03-29T22:31:16.013Z,99.90
2023-03-29T22:33:43.394Z,99.90
2023-03-29T22:36:15.113Z,99.90
2023-03-29T22:38:42.339Z,99.90
2023-03-29T22:41:09.238Z,99.90
2023-03-29T22:43:37.104Z,99.90
2023-03-29T22:46:06.223Z,99.90
2023-03-29T22:48:33.522Z,99.90
2023-03-29T22:51:03.535Z,99.90
2023-03-29T22:53:34.838Z,99.90
2023-03-29T22:56:09.574Z,99.90
2023-03-29T22:58:41.625Z,99.90
2023-03-29T23:01:08.587Z,99.90
2023-03-29T23:03:35.722Z,99.90
2023-03-29T23:06:02.819Z,99.90
2023-03-29T23:08:31.509Z,99.90
2023-03-29T23:10:58.768Z,99.90
2023-03-29T23:13:26.327Z,99.90
2023-03-29T23:15:55.188Z,99.90
2023-03-29T23:18:23.602Z,99.90
2023-03-29T23:20:52.496Z,99.90
2023-03-29T23:23:20.480Z,99.90
2023-03-29T23:25:48.685Z,99.90
2023-03-29T23:28:21.369Z,99.90
2023-03-29T23:31:05.439Z,99.90
2023-03-29T23:33:35.313Z,99.90
2023-03-29T23:36:04.810Z,99.90
2023-03-29T23:38:34.210Z,99.90
2023-03-29T23:41:03.650Z,99.90
2023-03-29T23:43:34.976Z,99.90
2023-03-29T23:46:05.068Z,99.90
2023-03-29T23:48:32.559Z,99.90
2023-03-29T23:50:59.540Z,99.90
2023-03-29T23:53:28.742Z,99.90
2023-03-29T23:55:58.501Z,99.90
2023-03-29T23:58:25.384Z,99.90
